Gerton, NC

13:27 EST, 23. Noyaber, 2014 (GMT -0500)
Little Bearwallow MOUNTAIN | Change Station
CLOSE
Current Station
Personal Weather Stations
Location: Hendersonville, NC
Böyiklik: 2820 ft
Nearby Weather Stations

Elev 2820 ft 35.44 °N, 82.35 °W | Updated 6 seconds ago

Yañğır
Yañğır
44.3 °F
Feels Like 44 °F
N
0.0
Cel Üzgärüçän Cel from KB
Gusts 0.0 mil/seğ

Bogön
High -- | Low -- °F
--% Chance of Precip.
Kiçä
High -- | Low -- °F
Precip. -- in
7:12 AM 5:18 PM
Yaña, 2% visible
Basım 30.01 in
Köriniwçenlik 3.0 mil
Bolıtlı Bik bolıtlı 400 ft
Bolıtlı 1000 ft
Cel köçi 44 °F
Çıq noqtası 44 °F
Dımlıq 97%
Rainfall 0.11 in
Qar bieklege Not available.
UV 1 out of 12
Pollen .30 out of 12
Hawa Sífatı Not available.
Flu Activity Not available.
SPECI KAVL 231815Z 22006KT 3SM RA BR BKN004 OVC010 08/07 A3001 RMK AO2 P0009 T00780067

More Conditions Fewer Conditions

Basım 30.01 in
Köriniwçenlik 3.0 mil
Bolıtlı Bik bolıtlı 400 ft
Bolıtlı 1000 ft
Cel köçi 44 °F
Çıq noqtası 44 °F
Dımlıq 97%
Rainfall 0.11 in
Qar bieklege Not available.
UV 1 out of 12
Pollen .30 out of 12
Hawa Sífatı Not available.
Flu Activity Not available.
SPECI KAVL 231815Z 22006KT 3SM RA BR BKN004 OVC010 08/07 A3001 RMK AO2 P0009 T00780067

More Conditions Fewer Conditions

10-Day Weather Forecast

Almanac

Kükbelem

Nov. 23, 2014 Rise Set
Anıñ çağı
Tormışlı qaranğı
Diñgezdä qarañğı
Küktä qarañğı
Ay
Kürenmäle yaqtı ozınlığı
Kön ozınlığı
Tomorrow will be .
, % of the Moon is Illuminated

Today's Extremes

State Highs State Lows

Community

WunderPhotos

Upload Photos

1,773,125 photos uploaded!

WunderBlogs® & News

Nearby

Hawa Sífatı

  Hawa Sífatı HS İndekse Pıçratqıç
Not available.

Qar terenligi

Station Depth Böyiklik

Earthquake Activity

Qala Distance Mag. Time & Date
Minimum magnitude displayed is 2.5.

Coastal Water Temperatures

Orın Cılılıq

Nearby Weather Stations